Time;durP1;ratioP1;P1;durP2;ratioP2;P2;SDS_P1;SDS_P2;PMS_P1;PMS_P2;Temp;Humidity;BMP_temperature;BMP_pressure;BME280_temperature;BME280_humidity;BME280_pressure;Samples;Min_cycle;Max_cycle;Signal;HPM_P1;HPM_P2
2023/07/22 00:01:58;;;;;;;7.23;2.30;;;;;;;18.86;48.24;99792.66;10343928;28;20247;-68
2023/07/22 00:07:00;;;;;;;3.70;2.60;;;;;;;17.64;50.92;99764.38;10344746;28;20316;-69
2023/07/22 00:12:02;;;;;;;6.30;2.60;;;;;;;18.44;49.84;99715.09;10347332;28;20272;-68
2023/07/22 00:17:04;;;;;;;5.47;3.00;;;;;;;17.94;49.99;99802.19;10349254;28;20237;-69
2023/07/22 00:22:06;;;;;;;3.43;2.90;;;;;;;18.13;50.20;99750.66;10352913;28;20237;-69
2023/07/22 00:27:08;;;;;;;3.83;2.70;;;;;;;19.15;48.60;99693.19;10345632;28;20244;-68
2023/07/22 00:32:10;;;;;;;4.53;3.07;;;;;;;18.41;49.44;99742.66;10352238;28;20855;-69
2023/07/22 00:37:12;;;;;;;6.00;2.97;;;;;;;18.65;49.38;99718.22;10351130;28;20229;-69
2023/07/22 00:42:13;;;;;;;4.47;2.37;;;;;;;19.16;48.57;99726.53;10348090;28;20237;-66
2023/07/22 00:47:16;;;;;;;3.60;2.90;;;;;;;18.76;48.84;99773.44;10348792;28;20241;-69
2023/07/22 00:52:18;;;;;;;5.50;3.10;;;;;;;19.80;47.42;99726.28;10350873;28;20275;-69
2023/07/22 00:57:20;;;;;;;4.17;3.10;;;;;;;19.25;47.85;99768.50;10350860;28;20296;-69
2023/07/22 01:02:23;;;;;;;5.60;3.13;;;;;;;17.64;51.46;99740.84;10349119;28;20661;-69
2023/07/22 01:07:25;;;;;;;5.17;3.10;;;;;;;18.19;49.21;99788.44;10350930;28;20719;-69
2023/07/22 01:12:27;;;;;;;4.17;3.10;;;;;;;20.04;46.78;99696.22;10347301;28;20205;-67
2023/07/22 01:17:29;;;;;;;3.72;3.25;;;;;;;18.81;48.21;99815.06;10350701;28;20237;-68
2023/07/22 01:22:33;;;;;;;3.37;2.93;;;;;;;17.96;50.85;99739.69;10350568;28;20201;-68
2023/07/22 01:27:35;;;;;;;4.83;2.90;;;;;;;18.37;50.32;99675.63;10348878;28;20712;-68
2023/07/22 01:32:38;;;;;;;4.13;2.80;;;;;;;19.19;48.18;99716.03;10345969;28;20312;-68
2023/07/22 01:37:40;;;;;;;4.07;2.97;;;;;;;19.00;48.57;99737.09;10351717;28;20252;-68
2023/07/22 01:42:42;;;;;;;4.03;3.13;;;;;;;17.96;50.45;99745.13;10354405;28;20628;-68
2023/07/22 01:47:44;;;;;;;3.80;2.80;;;;;;;17.85;50.77;99727.78;10350447;28;20272;-68
2023/07/22 01:52:46;;;;;;;3.43;3.03;;;;;;;18.75;49.41;99661.50;10353306;28;20320;-68
2023/07/22 01:57:48;;;;;;;3.30;3.00;;;;;;;17.94;50.88;99695.81;10349101;28;20248;-68
2023/07/22 02:02:50;;;;;;;3.37;3.07;;;;;;;17.74;51.17;99702.38;10350565;28;20248;-68
2023/07/22 02:07:51;;;;;;;4.47;3.00;;;;;;;18.88;49.30;99651.41;10349150;28;20337;-68
2023/07/22 02:12:53;;;;;;;5.73;3.33;;;;;;;17.20;51.78;99761.03;10349246;28;20259;-68
2023/07/22 02:17:56;;;;;;;4.47;3.50;;;;;;;16.27;53.97;99733.22;10351292;28;20320;-68
2023/07/22 02:22:58;;;;;;;5.17;3.13;;;;;;;16.91;52.50;99726.44;10350074;28;20668;-68
2023/07/22 02:27:59;;;;;;;4.70;3.57;;;;;;;17.01;52.19;99738.63;10350112;28;20279;-69
2023/07/22 02:33:02;;;;;;;3.07;2.77;;;;;;;18.65;49.00;99651.28;10344570;28;20316;-68
2023/07/22 02:38:03;;;;;;;4.23;3.43;;;;;;;17.07;51.63;99786.34;10351702;28;20363;-68
2023/07/22 02:43:06;;;;;;;4.53;3.27;;;;;;;17.16;52.20;99723.63;10348080;28;20233;-68
2023/07/22 02:48:09;;;;;;;4.37;3.50;;;;;;;17.77;50.30;99739.00;10350735;28;20237;-68
2023/07/22 02:53:11;;;;;;;3.47;2.90;;;;;;;18.14;50.00;99725.22;10349153;28;20320;-68
2023/07/22 02:58:12;;;;;;;4.20;3.00;;;;;;;18.70;49.08;99691.22;10346624;28;20311;-68
2023/07/22 03:03:14;;;;;;;4.60;3.20;;;;;;;18.24;49.22;99747.13;10347474;28;20372;-68
2023/07/22 03:08:17;;;;;;;4.70;3.60;;;;;;;16.68;52.35;99797.38;10347823;28;20657;-68
2023/07/22 03:13:19;;;;;;;4.33;3.20;;;;;;;18.39;49.64;99678.94;10343322;28;20313;-69
2023/07/22 03:18:20;;;;;;;5.73;3.37;;;;;;;18.38;48.94;99737.72;10345573;28;20287;-68
2023/07/22 03:23:22;;;;;;;5.50;3.50;;;;;;;18.25;49.59;99700.00;10349814;28;20272;-68
2023/07/22 03:28:25;;;;;;;5.10;3.53;;;;;;;17.57;50.07;99790.69;10346344;28;20316;-68
2023/07/22 03:33:27;;;;;;;4.50;3.40;;;;;;;18.89;48.08;99688.31;10348250;28;20295;-68
2023/07/22 03:38:29;;;;;;;7.07;4.00;;;;;;;17.80;49.64;99808.88;10344798;28;20233;-68
2023/07/22 03:43:31;;;;;;;6.37;3.70;;;;;;;17.10;50.94;99823.75;10348169;28;20238;-68
2023/07/22 03:48:32;;;;;;;5.20;3.33;;;;;;;17.44;50.55;99783.56;10353036;28;20827;-68
2023/07/22 03:53:34;;;;;;;4.27;3.60;;;;;;;15.95;53.26;99860.13;10359647;28;20876;-69
2023/07/22 03:58:36;;;;;;;5.07;3.67;;;;;;;16.96;51.77;99758.22;10351790;28;20283;-69
2023/07/22 04:03:37;;;;;;;5.13;3.67;;;;;;;17.39;50.87;99713.13;10352967;28;20328;-68
2023/07/22 04:08:39;;;;;;;4.40;3.20;;;;;;;17.53;50.24;99787.63;10353682;28;20835;-67
2023/07/22 04:13:41;;;;;;;4.67;2.73;;;;;;;17.25;50.85;99772.81;10352889;28;20817;-68
2023/07/22 04:18:43;;;;;;;3.90;3.20;;;;;;;17.81;49.91;99749.09;10353751;28;20244;-67
2023/07/22 04:23:45;;;;;;;6.93;3.30;;;;;;;18.69;48.11;99732.91;10351642;28;20632;-68
2023/07/22 04:28:46;;;;;;;4.00;3.33;;;;;;;18.26;48.65;99785.63;10350529;28;20244;-68
2023/07/22 04:33:48;;;;;;;4.10;3.50;;;;;;;18.87;47.04;99772.59;10353161;28;20645;-68
2023/07/22 04:38:50;;;;;;;4.47;3.30;;;;;;;17.90;48.61;99838.91;10349773;28;20248;-67
2023/07/22 04:43:52;;;;;;;5.63;3.30;;;;;;;19.39;46.17;99748.13;10351407;28;21201;-68
2023/07/22 04:48:55;;;;;;;4.13;3.10;;;;;;;16.94;50.70;99841.38;10351120;28;20275;-68
2023/07/22 04:53:57;;;;;;;6.33;3.17;;;;;;;17.32;50.36;99778.94;10350524;28;20383;-68
2023/07/22 04:58:58;;;;;;;6.27;2.90;;;;;;;17.87;48.91;99759.00;10349525;28;20677;-68
2023/07/22 05:04:01;;;;;;;5.50;3.40;;;;;;;17.37;50.06;99775.56;10351856;28;20323;-68
2023/07/22 05:09:03;;;;;;;3.93;3.50;;;;;;;16.97;50.70;99813.91;10350061;28;20235;-69
2023/07/22 05:14:05;;;;;;;3.67;3.30;;;;;;;18.61;47.91;99715.16;10348594;28;20236;-68
2023/07/22 05:19:08;;;;;;;4.87;2.93;;;;;;;17.02;50.27;99826.75;10350307;28;20989;-68
2023/07/22 05:24:09;;;;;;;4.10;3.23;;;;;;;17.38;49.63;99847.53;10347235;28;20621;-68
2023/07/22 05:29:11;;;;;;;3.63;2.93;;;;;;;18.16;48.58;99790.81;10350314;28;20368;-67
2023/07/22 05:34:13;;;;;;;3.87;3.43;;;;;;;16.87;51.41;99836.06;10347944;28;20714;-68
2023/07/22 05:39:17;;;;;;;5.17;3.30;;;;;;;17.40;50.67;99799.44;10350700;28;20328;-68
2023/07/22 05:44:19;;;;;;;4.30;3.23;;;;;;;18.22;48.99;99746.50;10348411;28;20232;-68
2023/07/22 05:49:21;;;;;;;3.73;3.20;;;;;;;17.41;50.87;99767.78;10350286;28;20287;-67
2023/07/22 05:54:22;;;;;;;4.43;3.20;;;;;;;17.04;51.02;99797.63;10348460;28;20233;-67
2023/07/22 05:59:24;;;;;;;6.63;3.60;;;;;;;17.33;51.01;99761.66;10348234;28;20229;-69
2023/07/22 06:04:26;;;;;;;5.60;2.93;;;;;;;17.22;51.32;99773.25;10347238;28;20229;-68
2023/07/22 06:09:28;;;;;;;3.40;2.80;;;;;;;16.98;51.05;99820.97;10347391;28;20328;-68
2023/07/22 06:14:29;;;;;;;4.17;2.77;;;;;;;17.32;51.05;99780.81;10349309;28;20319;-68
2023/07/22 06:19:31;;;;;;;2.87;2.50;;;;;;;17.23;51.19;99796.53;10347220;28;20229;-68
2023/07/22 06:24:33;;;;;;;4.13;2.80;;;;;;;16.83;52.07;99840.25;10347782;28;20448;-68
2023/07/22 06:29:35;;;;;;;3.87;3.00;;;;;;;17.42;50.80;99789.22;10348103;28;20342;-68
2023/07/22 06:34:36;;;;;;;4.53;3.00;;;;;;;16.42;52.93;99871.41;10346072;28;20647;-68
2023/07/22 06:39:38;;;;;;;4.60;3.20;;;;;;;17.05;51.61;99837.94;10348252;28;20237;-68
2023/07/22 06:44:40;;;;;;;3.60;3.30;;;;;;;17.08;52.19;99785.31;10347010;28;20240;-68
2023/07/22 06:49:42;;;;;;;5.30;3.47;;;;;;;17.26;51.68;99806.91;10348201;28;20252;-68
2023/07/22 06:54:47;;;;;;;5.23;3.00;;;;;;;17.29;51.56;99816.44;10344289;28;20729;-68
2023/07/22 06:59:50;;;;;;;4.40;2.97;;;;;;;18.53;49.75;99733.69;10345341;28;20252;-69
2023/07/22 07:04:52;;;;;;;3.33;3.03;;;;;;;17.60;50.93;99825.41;10346943;28;20245;-68
2023/07/22 07:09:54;;;;;;;4.60;2.90;;;;;;;17.79;50.75;99804.53;10343495;28;20233;-68
2023/07/22 07:14:56;;;;;;;4.87;3.20;;;;;;;18.15;50.10;99824.34;10347471;28;20229;-68
2023/07/22 07:19:57;;;;;;;3.43;2.57;;;;;;;18.69;48.02;99841.31;10347729;28;20225;-68
2023/07/22 07:24:59;;;;;;;3.13;2.67;;;;;;;18.00;49.71;99884.34;10354035;28;20776;-68
2023/07/22 07:30:01;;;;;;;4.63;2.70;;;;;;;18.60;48.28;99870.69;10354457;28;20229;-69
2023/07/22 07:35:04;;;;;;;2.87;2.30;;;;;;;19.40;47.28;99824.94;10353640;28;20320;-68
2023/07/22 07:40:06;;;;;;;2.97;2.30;;;;;;;18.99;47.48;99849.31;10355384;28;20233;-68
2023/07/22 07:45:08;;;;;;;2.85;2.38;;;;;;;19.22;46.67;99876.66;10354433;28;20291;-68
2023/07/22 07:50:10;;;;;;;3.20;2.40;;;;;;;19.55;46.19;99876.81;10358286;28;20732;-68
2023/07/22 07:55:12;;;;;;;4.17;2.70;;;;;;;18.75;45.99;99913.56;10356345;28;20233;-69
2023/07/22 08:00:14;;;;;;;3.03;2.30;;;;;;;19.91;44.73;99877.47;10350594;28;20268;-67
2023/07/22 08:05:16;;;;;;;2.42;2.22;;;;;;;19.76;45.91;99850.84;10354240;28;20291;-68
2023/07/22 08:10:18;;;;;;;3.17;2.60;;;;;;;20.05;45.61;99836.41;10348506;28;20229;-68
2023/07/22 08:15:19;;;;;;;5.63;2.20;;;;;;;20.68;44.90;99813.47;10350552;28;20232;-69
2023/07/22 08:20:21;;;;;;;2.35;2.15;;;;;;;20.70;44.27;99854.00;10355914;28;20274;-68
2023/07/22 08:25:23;;;;;;;2.47;2.25;;;;;;;21.13;43.98;99802.63;10352928;28;20236;-68
2023/07/22 08:30:25;;;;;;;3.70;2.33;;;;;;;21.20;43.40;99820.38;10351845;28;20238;-69
2023/07/22 08:35:27;;;;;;;2.25;2.00;;;;;;;21.15;42.89;99865.75;10351862;28;20318;-68
2023/07/22 08:40:35;;;;;;;2.22;2.00;;;;;;;20.66;43.65;99882.75;10350819;28;20303;-68
2023/07/22 08:45:38;;;;;;;3.03;2.15;;;;;;;21.00;42.19;99847.34;10352355;28;20261;-68
2023/07/22 08:50:55;;;;;;;2.60;2.00;;;;;;;21.83;42.17;99803.63;10351820;28;21186;-68
2023/07/22 08:55:57;;;;;;;2.53;2.20;;;;;;;21.80;40.57;99855.88;10351894;28;20232;-68
2023/07/22 09:00:59;;;;;;;2.50;2.30;;;;;;;21.53;42.09;99834.91;10350031;28;20280;-68
2023/07/22 09:06:04;;;;;;;2.72;1.90;;;;;;;21.56;41.64;99867.06;10349308;28;20316;-68
2023/07/22 09:11:06;;;;;;;2.13;1.92;;;;;;;21.96;40.59;99792.31;10350159;28;20243;-69
2023/07/22 09:16:10;;;;;;;2.13;1.92;;;;;;;22.16;41.75;99783.44;10350001;28;20229;-68
2023/07/22 09:21:11;;;;;;;2.10;1.90;;;;;;;22.58;39.23;99806.34;10350643;28;20229;-68
2023/07/22 09:26:15;;;;;;;1.75;1.65;;;;;;;22.62;39.91;99771.19;10348095;28;20251;-69
2023/07/22 09:31:17;;;;;;;2.10;1.90;;;;;;;21.76;40.47;99838.38;10350307;28;20239;-68
2023/07/22 09:36:19;;;;;;;2.65;1.85;;;;;;;21.74;40.05;99825.03;10350357;28;20252;-68
2023/07/22 09:41:20;;;;;;;2.25;2.05;;;;;;;22.66;39.45;99770.41;10351006;28;20318;-68
2023/07/22 09:46:31;;;;;;;3.40;1.80;;;;;;;21.72;40.19;99783.63;10348124;28;20316;-68
2023/07/22 09:51:38;;;;;;;3.25;1.80;;;;;;;23.20;39.30;99722.84;10349102;28;20243;-67
2023/07/22 09:57:03;;;;;;;1.95;1.75;;;;;;;24.02;38.18;99711.09;10349122;28;20229;-68
2023/07/22 10:02:07;;;;;;;2.50;1.90;;;;;;;23.26;39.25;99735.44;10344978;28;20690;-68
2023/07/22 10:07:11;;;;;;;2.95;2.00;;;;;;;23.79;39.14;99715.25;10348858;28;20225;-69
2023/07/22 10:12:14;;;;;;;1.92;1.80;;;;;;;22.99;39.22;99759.34;10349533;28;20295;-68
2023/07/22 10:17:16;;;;;;;2.10;1.83;;;;;;;23.40;38.65;99734.91;10343373;28;20237;-68
2023/07/22 10:22:18;;;;;;;2.50;1.85;;;;;;;22.93;38.14;99708.59;10338457;28;20261;-68
2023/07/22 10:27:21;;;;;;;2.15;1.70;;;;;;;23.63;37.02;99690.69;10347410;28;20233;-68
2023/07/22 10:32:23;;;;;;;3.38;1.67;;;;;;;23.18;36.96;99744.13;10344265;28;20232;-68
2023/07/22 10:37:34;;;;;;;3.25;1.88;;;;;;;23.97;36.53;99708.38;10348809;28;20303;-69
2023/07/22 10:42:36;;;;;;;1.90;1.60;;;;;;;23.23;35.95;99746.06;10346024;28;20260;-68
2023/07/22 10:47:37;;;;;;;2.20;1.60;;;;;;;23.91;35.49;99660.31;10348044;28;20295;-68
2023/07/22 10:52:44;;;;;;;2.20;1.60;;;;;;;24.04;34.42;99683.47;10345549;28;20232;-68
2023/07/22 10:57:52;;;;;;;2.35;1.67;;;;;;;23.79;35.13;99663.34;10344898;28;20249;-68
2023/07/22 11:06:22;;;;;;;2.25;1.63;;;;;;;22.51;38.51;99618.47;10436513;27;21215;-67
2023/07/22 11:11:40;;;;;;;1.85;1.67;;;;;;;21.29;37.98;99681.97;10421732;28;20322;-68
2023/07/22 11:16:44;;;;;;;2.55;1.27;;;;;;;23.19;37.07;99576.53;10418786;28;20315;-67
2023/07/22 11:21:48;;;;;;;2.65;1.30;;;;;;;21.85;37.74;99646.22;10417511;28;20224;-68
2023/07/22 11:26:51;;;;;;;1.50;1.40;;;;;;;22.88;36.41;99562.91;10416468;28;20318;-67
2023/07/22 11:31:53;;;;;;;2.83;2.20;;;;;;;22.40;37.28;99564.16;10420082;28;20240;-70
2023/07/22 11:36:56;;;;;;;2.55;1.55;;;;;;;21.45;36.94;99658.44;10420644;28;20727;-67
2023/07/22 11:42:01;;;;;;;1.58;1.48;;;;;;;22.18;36.53;99655.09;10419235;28;20232;-67
2023/07/22 11:47:04;;;;;;;4.05;1.60;;;;;;;23.57;35.04;99584.44;10419849;28;20236;-68
2023/07/22 11:52:11;;;;;;;2.33;1.90;;;;;;;22.66;35.61;99665.97;10416922;28;20711;-69
2023/07/22 11:57:18;;;;;;;1.95;1.75;;;;;;;23.34;35.41;99632.25;10415519;28;20239;-67
2023/07/22 12:02:24;;;;;;;1.50;1.40;;;;;;;23.66;33.91;99615.56;10443843;28;20340;-70
2023/07/22 12:07:30;;;;;;;1.90;1.58;;;;;;;23.16;34.35;99598.97;10385046;28;20232;-66
2023/07/22 12:12:37;;;;;;;3.03;1.80;;;;;;;22.78;34.35;99643.91;10385964;28;20610;-68
2023/07/22 12:17:50;;;;;;;3.38;1.90;;;;;;;22.37;34.53;99624.66;10355707;28;20244;-70
2023/07/22 12:22:52;;;;;;;2.13;1.85;;;;;;;23.80;33.71;99551.06;10356052;28;20620;-70
2023/07/22 12:27:54;;;;;;;2.78;1.73;;;;;;;23.58;33.48;99573.22;10391431;28;21168;-70
2023/07/22 12:32:56;;;;;;;2.05;1.75;;;;;;;22.92;34.62;99606.00;10359628;28;20720;-69
2023/07/22 12:37:57;;;;;;;2.08;1.88;;;;;;;23.04;34.67;99579.25;10362613;28;20257;-69
2023/07/22 12:42:59;;;;;;;2.97;2.10;;;;;;;22.46;34.25;99579.44;10351222;28;20322;-70
2023/07/22 12:48:05;;;;;;;1.83;1.52;;;;;;;23.06;33.77;99500.69;10351387;28;20240;-67
2023/07/22 12:53:07;;;;;;;2.03;1.88;;;;;;;23.25;33.08;99536.44;10353968;28;20754;-68
2023/07/22 12:58:08;;;;;;;2.60;2.17;;;;;;;24.32;32.51;99565.31;10353108;28;20233;-69
2023/07/22 13:03:10;;;;;;;3.65;1.70;;;;;;;24.44;33.08;99485.66;10379550;28;20244;-69
2023/07/22 13:08:12;;;;;;;2.55;2.20;;;;;;;24.50;32.70;99508.34;10423981;28;20246;-69
2023/07/22 13:13:14;;;;;;;2.80;2.05;;;;;;;23.78;33.00;99515.00;10397305;28;20224;-67
2023/07/22 13:18:16;;;;;;;2.72;2.03;;;;;;;23.56;32.81;99593.72;10431330;28;20675;-69
2023/07/22 13:23:18;;;;;;;1.70;1.60;;;;;;;24.74;32.34;99535.81;10416549;28;20316;-69
2023/07/22 13:28:20;;;;;;;4.30;2.08;;;;;;;24.24;32.21;99579.59;10384015;28;20314;-68
2023/07/22 13:33:21;;;;;;;2.85;2.05;;;;;;;24.23;32.95;99568.94;10386745;28;20590;-70
2023/07/22 13:38:23;;;;;;;2.47;1.90;;;;;;;24.04;32.35;99476.63;10388289;28;20320;-69
2023/07/22 13:43:27;;;;;;;3.65;1.98;;;;;;;23.59;32.43;99563.94;10385919;28;20299;-69
2023/07/22 13:48:28;;;;;;;2.50;2.17;;;;;;;24.15;32.38;99516.47;10387785;28;20228;-69
2023/07/22 13:53:30;;;;;;;1.98;1.88;;;;;;;24.56;31.92;99526.31;10387683;28;20637;-69
2023/07/22 13:58:32;;;;;;;2.25;2.00;;;;;;;24.23;31.81;99539.69;10384112;28;20229;-69
2023/07/22 14:03:33;;;;;;;3.28;2.50;;;;;;;25.54;31.59;99487.13;10387771;28;20229;-70
2023/07/22 14:08:35;;;;;;;3.63;2.03;;;;;;;24.64;31.45;99528.47;10397086;28;20244;-69
2023/07/22 14:13:37;;;;;;;4.20;2.25;;;;;;;25.81;31.16;99497.50;10396150;28;20245;-69
2023/07/22 14:18:39;;;;;;;2.78;2.30;;;;;;;25.16;31.50;99487.81;10392587;28;20323;-69
2023/07/22 14:23:41;;;;;;;3.50;2.40;;;;;;;24.62;31.15;99492.38;10396750;28;20267;-69
2023/07/22 14:28:43;;;;;;;3.80;2.20;;;;;;;24.67;31.29;99489.59;10395316;28;20224;-69
2023/07/22 14:33:45;;;;;;;15.77;12.55;;;;;;;24.97;30.82;99517.81;10395177;28;20331;-69
2023/07/22 14:38:47;;;;;;;3.03;2.40;;;;;;;24.33;30.68;99556.03;10393543;28;20228;-69
2023/07/22 14:43:49;;;;;;;4.35;2.13;;;;;;;24.13;30.76;99494.06;10387679;28;20777;-69
2023/07/22 14:48:50;;;;;;;3.92;2.42;;;;;;;24.08;31.51;99496.00;10391460;28;20259;-69
2023/07/22 14:53:52;;;;;;;3.38;2.67;;;;;;;24.46;31.25;99490.84;10395294;28;20235;-69
2023/07/22 14:58:54;;;;;;;4.88;2.35;;;;;;;24.95;31.32;99489.09;10395428;28;20240;-68
2023/07/22 15:03:56;;;;;;;3.75;2.38;;;;;;;24.40;31.83;99511.97;10387736;28;20231;-70
2023/07/22 15:08:58;;;;;;;4.07;2.20;;;;;;;23.96;32.40;99507.28;10393711;28;20730;-69
2023/07/22 15:14:00;;;;;;;1.95;1.83;;;;;;;25.48;31.34;99443.38;10392186;28;20336;-69
2023/07/22 15:19:02;;;;;;;3.38;2.20;;;;;;;24.56;31.11;99512.66;10391718;28;20282;-69
2023/07/22 15:24:04;;;;;;;5.07;2.22;;;;;;;24.62;31.93;99470.50;10393482;28;20233;-69
2023/07/22 15:29:07;;;;;;;2.65;2.17;;;;;;;23.92;31.67;99474.25;10373081;28;20794;-69
2023/07/22 15:34:08;;;;;;;2.30;1.88;;;;;;;25.04;30.93;99449.88;10359763;28;20232;-69
2023/07/22 15:39:11;;;;;;;2.63;2.00;;;;;;;26.02;30.44;99462.41;10365536;28;20233;-69
2023/07/22 15:44:13;;;;;;;2.65;2.00;;;;;;;25.69;30.40;99489.66;10342339;28;20237;-69
2023/07/22 15:49:15;;;;;;;3.85;2.00;;;;;;;23.83;31.93;99541.47;10344889;28;20315;-68
2023/07/22 15:54:16;;;;;;;2.63;2.13;;;;;;;24.94;31.70;99465.59;10350367;28;20237;-69
2023/07/22 15:59:18;;;;;;;4.78;2.17;;;;;;;25.03;31.12;99494.75;10347147;28;20234;-69
2023/07/22 16:04:20;;;;;;;2.72;2.13;;;;;;;25.81;30.85;99462.72;10374717;28;20228;-69
2023/07/22 16:09:22;;;;;;;3.38;2.22;;;;;;;25.40;31.10;99484.28;10386259;28;20237;-69
2023/07/22 16:14:23;;;;;;;2.95;2.35;;;;;;;25.24;31.06;99508.28;10407036;28;20240;-69
2023/07/22 16:19:25;;;;;;;4.47;2.00;;;;;;;25.59;31.31;99531.72;10419807;28;20782;-70
2023/07/22 16:24:27;;;;;;;3.28;2.40;;;;;;;25.86;30.15;99481.00;10411972;28;20322;-69
2023/07/22 16:29:28;;;;;;;2.25;1.90;;;;;;;25.26;30.73;99520.56;10432205;28;20317;-72
2023/07/22 16:34:30;;;;;;;2.47;2.08;;;;;;;24.90;31.10;99529.09;10430545;28;20236;-72
2023/07/22 16:39:32;;;;;;;1.90;1.80;;;;;;;25.76;30.73;99498.41;10430515;28;20246;-72
2023/07/22 16:44:34;;;;;;;2.28;1.88;;;;;;;25.39;30.74;99494.44;10423434;28;20724;-73
2023/07/22 16:49:35;;;;;;;5.78;2.70;;;;;;;25.02;30.81;99534.19;10419374;28;20318;-73
2023/07/22 16:54:38;;;;;;;3.95;1.95;;;;;;;25.73;30.76;99518.16;10410421;28;20240;-73
2023/07/22 16:59:39;;;;;;;4.95;2.05;;;;;;;26.34;30.31;99460.88;10384656;28;20263;-72
2023/07/22 17:04:41;;;;;;;13.70;9.65;;;;;;;25.11;30.79;99512.50;10387440;28;20626;-72
2023/07/22 17:09:43;;;;;;;4.50;3.17;;;;;;;26.13;29.78;99472.13;10407357;28;20322;-72
2023/07/22 17:14:44;;;;;;;2.40;2.13;;;;;;;26.77;30.12;99457.97;10429276;28;22481;-72
2023/07/22 17:19:46;;;;;;;2.90;2.33;;;;;;;26.64;30.41;99488.94;10411123;28;20228;-73
2023/07/22 17:24:48;;;;;;;2.85;2.25;;;;;;;26.24;30.24;99510.38;10388656;28;20236;-73
2023/07/22 17:29:50;;;;;;;4.25;2.53;;;;;;;26.57;29.93;99462.69;10407635;28;20786;-73
2023/07/22 17:34:52;;;;;;;2.75;2.03;;;;;;;27.29;29.94;99444.97;10414270;28;20323;-72
2023/07/22 17:39:54;;;;;;;2.72;2.15;;;;;;;26.47;30.33;99468.34;10398058;28;20231;-73
2023/07/22 17:44:57;;;;;;;2.28;2.08;;;;;;;26.78;30.00;99505.47;10415160;28;20277;-72
2023/07/22 17:49:59;;;;;;;3.85;2.10;;;;;;;26.24;30.70;99478.28;10403356;28;20236;-72
2023/07/22 17:55:01;;;;;;;2.90;2.10;;;;;;;25.78;30.32;99509.06;10386745;28;20240;-70
2023/07/22 18:00:03;;;;;;;2.17;1.58;;;;;;;26.52;30.29;99481.16;10385574;28;20232;-73
2023/07/22 18:05:05;;;;;;;5.32;2.92;;;;;;;27.00;30.26;99447.94;10407927;28;20277;-72
2023/07/22 18:10:10;;;;;;;4.53;3.20;;;;;;;26.27;30.76;99474.16;10406682;28;20244;-73
2023/07/22 18:15:12;;;;;;;3.58;3.22;;;;;;;26.24;31.23;99483.78;10394743;28;20232;-72
2023/07/22 18:20:13;;;;;;;3.28;2.13;;;;;;;26.85;30.70;99471.00;10408799;28;20232;-73
2023/07/22 18:25:15;;;;;;;2.53;2.10;;;;;;;26.36;31.24;99456.69;10425620;28;20224;-73
2023/07/22 18:30:17;;;;;;;3.22;2.35;;;;;;;26.97;30.33;99442.25;10404571;28;20727;-72
2023/07/22 18:35:19;;;;;;;7.22;4.10;;;;;;;26.33;31.11;99446.34;10387292;28;20331;-72
2023/07/22 18:40:20;;;;;;;3.58;3.03;;;;;;;26.89;30.41;99466.56;10383642;28;20247;-73
2023/07/22 18:45:22;;;;;;;10.18;7.18;;;;;;;27.17;30.44;99443.78;10413333;28;20235;-73
2023/07/22 18:50:24;;;;;;;4.35;3.30;;;;;;;26.10;31.29;99464.50;10429207;28;20235;-73
2023/07/22 18:55:25;;;;;;;2.72;2.13;;;;;;;26.08;31.59;99472.22;10404983;28;20256;-72
2023/07/22 19:00:27;;;;;;;3.30;2.38;;;;;;;25.36;32.51;99477.78;10384471;28;20231;-73
2023/07/22 19:05:29;;;;;;;4.55;2.45;;;;;;;26.50;31.42;99445.81;10384079;28;20314;-72
2023/07/22 19:10:31;;;;;;;3.45;2.03;;;;;;;27.27;30.67;99433.44;10410384;28;20231;-73
2023/07/22 19:15:32;;;;;;;3.10;2.42;;;;;;;25.65;31.77;99507.81;10427252;28;20635;-72
2023/07/22 19:20:34;;;;;;;4.00;2.70;;;;;;;25.70;31.54;99476.81;10398690;28;20225;-73
2023/07/22 19:25:37;;;;;;;4.45;2.60;;;;;;;27.19;31.05;99433.31;10387184;28;20614;-69
2023/07/22 19:30:39;;;;;;;5.03;2.35;;;;;;;26.61;31.91;99451.91;10418619;28;20236;-69
2023/07/22 19:35:40;;;;;;;3.97;2.58;;;;;;;26.87;31.92;99449.56;10416616;28;20858;-69
2023/07/22 19:40:42;;;;;;;2.58;2.20;;;;;;;24.66;32.82;99462.53;10400416;28;20862;-68
2023/07/22 19:45:44;;;;;;;4.93;2.60;;;;;;;24.27;34.32;99444.25;10396580;28;20954;-69
2023/07/22 19:50:45;;;;;;;4.15;2.45;;;;;;;25.46;32.48;99442.84;10423670;28;20224;-69
2023/07/22 19:55:49;;;;;;;3.33;2.50;;;;;;;24.99;32.97;99438.19;10404370;28;20233;-68
2023/07/22 20:00:52;;;;;;;3.53;2.15;;;;;;;25.11;32.78;99466.75;10386944;28;20996;-69
2023/07/22 20:05:54;;;;;;;3.83;2.30;;;;;;;25.22;32.46;99480.38;10361889;28;20244;-69
2023/07/22 20:10:56;;;;;;;2.78;2.47;;;;;;;25.62;32.49;99468.13;10361779;28;20320;-66
2023/07/22 20:15:57;;;;;;;6.85;2.60;;;;;;;25.29;33.70;99453.47;10366299;28;20265;-69
2023/07/22 20:20:59;;;;;;;4.03;2.72;;;;;;;23.77;34.77;99487.94;10362237;28;20251;-69
2023/07/22 20:26:01;;;;;;;3.65;2.40;;;;;;;23.62;35.92;99413.22;10362859;28;20421;-69
2023/07/22 20:31:03;;;;;;;3.47;2.60;;;;;;;23.89;34.38;99435.75;10343608;28;20234;-68
2023/07/22 20:36:05;;;;;;;3.70;2.70;;;;;;;25.84;33.09;99444.84;10340911;28;20233;-67
2023/07/22 20:41:11;;;;;;;3.83;2.35;;;;;;;25.29;33.22;99497.28;10361729;28;20225;-68
2023/07/22 20:46:12;;;;;;;3.20;2.63;;;;;;;24.59;33.87;99476.53;10360150;28;20261;-68
2023/07/22 20:51:16;;;;;;;3.92;2.50;;;;;;;23.44;36.78;99501.97;10359853;28;20307;-68
2023/07/22 20:56:18;;;;;;;3.47;2.47;;;;;;;23.07;36.81;99470.41;10358737;28;20241;-68
2023/07/22 21:01:20;;;;;;;2.83;2.50;;;;;;;24.91;34.85;99447.81;10362786;28;20241;-68
2023/07/22 21:06:21;;;;;;;5.43;2.47;;;;;;;23.62;35.57;99516.97;10349806;28;20221;-68
2023/07/22 21:11:23;;;;;;;10.65;2.85;;;;;;;24.00;35.88;99451.78;10349591;28;20241;-68
2023/07/22 21:16:25;;;;;;;7.65;2.63;;;;;;;23.26;36.51;99446.09;10349633;28;20239;-68
2023/07/22 21:21:27;;;;;;;6.28;2.67;;;;;;;21.77;38.37;99478.69;10351338;28;20244;-68
2023/07/22 21:26:29;;;;;;;4.30;2.63;;;;;;;23.26;36.32;99480.75;10346705;28;20727;-68
2023/07/22 21:31:31;;;;;;;5.03;2.83;;;;;;;23.64;36.22;99418.38;10351081;28;20655;-68
2023/07/22 21:36:33;;;;;;;3.90;2.67;;;;;;;25.03;34.22;99463.84;10348594;28;20242;-68
2023/07/22 21:41:35;;;;;;;2.72;2.30;;;;;;;24.77;35.13;99487.91;10349907;28;20229;-67
2023/07/22 21:46:36;;;;;;;5.18;2.90;;;;;;;24.95;34.38;99475.41;10346059;28;20328;-69
2023/07/22 21:51:43;;;;;;;5.43;3.00;;;;;;;24.65;34.82;99491.81;10348640;28;20244;-68
2023/07/22 21:56:44;;;;;;;4.20;2.80;;;;;;;23.75;35.28;99544.78;10331970;28;22181;-67
2023/07/22 22:01:46;;;;;;;3.53;2.53;;;;;;;24.34;35.92;99456.50;10349684;28;20248;-68
2023/07/22 22:06:48;;;;;;;7.63;2.75;;;;;;;24.62;35.29;99481.44;10363726;28;20237;-68
2023/07/22 22:11:49;;;;;;;3.80;2.63;;;;;;;23.48;37.72;99469.47;10358747;28;20232;-68
2023/07/22 22:16:51;;;;;;;3.97;2.67;;;;;;;23.86;37.07;99448.03;10359064;28;20237;-69
2023/07/22 22:21:54;;;;;;;4.95;2.70;;;;;;;22.57;37.43;99498.53;10368519;28;20252;-68
2023/07/22 22:26:56;;;;;;;4.65;2.35;;;;;;;21.30;38.20;99505.91;10357630;28;20799;-68
2023/07/22 22:31:57;;;;;;;3.17;2.33;;;;;;;23.18;36.92;99426.72;10365559;28;20228;-68
2023/07/22 22:36:59;;;;;;;2.65;2.20;;;;;;;22.02;37.34;99509.84;10365742;28;20328;-69
2023/07/22 22:42:01;;;;;;;2.47;2.28;;;;;;;22.06;37.69;99496.50;10366180;28;20225;-68
2023/07/22 22:47:03;;;;;;;5.22;2.72;;;;;;;23.56;36.54;99457.97;10360815;28;20230;-68
2023/07/22 22:52:05;;;;;;;3.72;2.60;;;;;;;21.83;38.26;99459.63;10359485;28;20240;-68
2023/07/22 22:57:07;;;;;;;2.95;2.42;;;;;;;21.51;38.34;99474.19;10355202;28;20336;-68
2023/07/22 23:02:09;;;;;;;4.22;2.53;;;;;;;22.35;37.58;99453.22;10363807;28;20240;-68
2023/07/22 23:07:10;;;;;;;3.22;2.33;;;;;;;21.71;38.70;99455.25;10413946;28;21599;-68
2023/07/22 23:12:12;;;;;;;2.38;2.17;;;;;;;21.40;38.88;99448.84;10424202;28;20802;-67
2023/07/22 23:17:14;;;;;;;2.88;2.40;;;;;;;21.41;38.62;99466.84;10425810;28;20247;-69
2023/07/22 23:22:16;;;;;;;2.55;2.10;;;;;;;22.25;37.86;99473.13;10418946;28;20241;-68
2023/07/22 23:27:17;;;;;;;3.75;2.85;;;;;;;22.43;37.52;99465.50;10422122;28;20605;-68